createdAt,value
2023-01-29T00:02:15.436Z,119.83
2023-01-29T00:05:27.988Z,113.02
2023-01-29T00:08:36.478Z,122.49
2023-01-29T00:11:45.913Z,130.46
2023-01-29T00:14:51.759Z,123.72
2023-01-29T00:17:58.264Z,134.89
2023-01-29T00:21:04.043Z,121.67
2023-01-29T00:24:11.363Z,119.60
2023-01-29T00:27:19.741Z,112.12
2023-01-29T00:30:28.947Z,109.64
2023-01-29T00:33:34.761Z,108.17
2023-01-29T00:36:41.540Z,112.18
2023-01-29T00:39:48.428Z,111.03
2023-01-29T00:43:10.108Z,111.17
2023-01-29T00:46:17.560Z,109.10
2023-01-29T00:49:24.669Z,111.41
2023-01-29T00:52:31.193Z,114.05
2023-01-29T00:55:37.867Z,108.34
2023-01-29T00:58:46.249Z,110.01
2023-01-29T01:02:05.303Z,108.43
2023-01-29T01:05:18.139Z,107.14
2023-01-29T01:08:37.289Z,109.85
2023-01-29T01:11:43.035Z,109.29
2023-01-29T01:14:52.654Z,107.61
2023-01-29T01:18:01.465Z,103.43
2023-01-29T01:21:09.238Z,105.97
2023-01-29T01:24:15.632Z,100.32
2023-01-29T01:27:22.877Z,102.32
2023-01-29T01:30:33.201Z,103.00
2023-01-29T01:33:40.693Z,99.55
2023-01-29T01:36:46.490Z,91.33
2023-01-29T01:39:57.964Z,90.92
2023-01-29T01:43:05.443Z,79.21
2023-01-29T01:46:15.226Z,71.03
2023-01-29T01:49:24.506Z,71.82
2023-01-29T01:52:35.259Z,82.95
2023-01-29T01:55:51.749Z,81.92
2023-01-29T01:59:02.368Z,77.21
2023-01-29T02:02:23.829Z,69.50
2023-01-29T02:05:46.095Z,81.80
2023-01-29T02:09:13.921Z,86.49
2023-01-29T02:12:22.865Z,79.54
2023-01-29T02:15:28.875Z,76.69
2023-01-29T02:18:39.673Z,82.75
2023-01-29T02:22:25.932Z,82.66
2023-01-29T02:26:13.456Z,81.21
2023-01-29T02:29:35.911Z,82.64
2023-01-29T02:32:58.872Z,80.75
2023-01-29T02:36:26.035Z,90.54
2023-01-29T02:39:42.444Z,119.74
2023-01-29T02:43:06.542Z,108.47
2023-01-29T02:46:31.831Z,126.23
2023-01-29T02:49:50.372Z,88.11
2023-01-29T02:53:09.597Z,87.72
2023-01-29T02:56:29.687Z,88.32
2023-01-29T02:59:48.027Z,68.19
2023-01-29T03:03:06.857Z,74.44
2023-01-29T03:06:24.399Z,75.90
2023-01-29T03:09:42.584Z,75.56
2023-01-29T03:12:59.954Z,65.80
2023-01-29T03:16:19.230Z,67.54
2023-01-29T03:19:40.010Z,80.13
2023-01-29T03:23:07.949Z,84.41
2023-01-29T03:26:33.728Z,71.27
2023-01-29T03:29:58.847Z,68.59
2023-01-29T03:33:23.766Z,68.85
2023-01-29T03:36:45.840Z,69.01
2023-01-29T03:39:55.752Z,72.01
2023-01-29T03:43:14.882Z,78.77
2023-01-29T03:46:34.332Z,72.84
2023-01-29T03:50:00.997Z,72.25
2023-01-29T03:53:24.074Z,71.48
2023-01-29T03:56:52.736Z,64.38
2023-01-29T04:00:17.495Z,65.35
2023-01-29T04:03:43.083Z,66.49
2023-01-29T04:06:56.916Z,68.04
2023-01-29T04:10:15.229Z,72.88
2023-01-29T04:13:22.828Z,57.35
2023-01-29T04:16:39.227Z,57.66
2023-01-29T04:19:54.855Z,50.75
2023-01-29T04:23:01.491Z,55.87
2023-01-29T04:26:42.139Z,60.02
2023-01-29T04:30:13.953Z,58.22
2023-01-29T04:33:40.209Z,61.79
2023-01-29T04:37:05.478Z,58.52
2023-01-29T04:40:27.219Z,55.09
2023-01-29T04:43:48.940Z,57.21
2023-01-29T04:47:15.829Z,58.46
2023-01-29T04:50:37.182Z,66.92
2023-01-29T04:54:03.096Z,68.91
2023-01-29T04:57:25.702Z,65.70
2023-01-29T05:00:45.299Z,73.93
2023-01-29T05:03:58.189Z,72.66
2023-01-29T05:07:09.969Z,73.42
2023-01-29T05:10:29.280Z,74.38
2023-01-29T05:13:45.103Z,77.76
2023-01-29T05:17:01.405Z,79.08
2023-01-29T05:20:09.071Z,100.64
2023-01-29T05:23:21.286Z,87.59
2023-01-29T05:26:39.857Z,72.64
2023-01-29T05:29:50.299Z,67.97
2023-01-29T05:32:58.658Z,71.37
2023-01-29T05:36:06.943Z,75.28
2023-01-29T05:39:12.852Z,77.44
2023-01-29T05:42:22.725Z,78.31
2023-01-29T05:45:29.050Z,81.19
2023-01-29T05:48:38.360Z,89.27
2023-01-29T05:51:44.306Z,110.52
2023-01-29T05:54:50.870Z,78.51
2023-01-29T05:57:56.635Z,83.49
2023-01-29T06:01:13.338Z,78.16
2023-01-29T06:04:22.205Z,81.56
2023-01-29T06:07:29.802Z,79.06
2023-01-29T06:10:36.276Z,86.60
2023-01-29T06:13:43.627Z,75.49
2023-01-29T06:16:49.559Z,75.76
2023-01-29T06:19:58.965Z,75.83
2023-01-29T06:23:05.151Z,79.30
2023-01-29T06:26:17.302Z,83.42
2023-01-29T06:29:23.086Z,106.50
2023-01-29T06:32:30.632Z,83.81
2023-01-29T06:35:39.145Z,93.65
2023-01-29T06:38:45.771Z,98.91
2023-01-29T06:41:51.767Z,108.16
2023-01-29T06:44:58.419Z,104.42
2023-01-29T06:48:04.124Z,99.91
2023-01-29T06:51:14.857Z,99.80
2023-01-29T06:54:20.650Z,164.05
2023-01-29T06:57:27.638Z,190.53
2023-01-29T07:00:33.645Z,221.55
2023-01-29T07:03:41.811Z,243.74
2023-01-29T07:06:50.250Z,247.55
2023-01-29T07:09:56.747Z,152.17
2023-01-29T07:13:03.175Z,186.01
2023-01-29T07:16:10.540Z,115.01
2023-01-29T07:19:16.549Z,124.03
2023-01-29T07:22:25.844Z,160.67
2023-01-29T07:25:31.713Z,145.10
2023-01-29T07:28:40.849Z,164.28
2023-01-29T07:31:46.855Z,161.62
2023-01-29T07:34:53.519Z,159.26
2023-01-29T07:38:02.107Z,153.31
2023-01-29T07:41:09.315Z,157.91
2023-01-29T07:44:18.273Z,179.64
2023-01-29T07:47:24.880Z,170.91
2023-01-29T07:50:31.404Z,158.06
2023-01-29T07:53:40.760Z,238.84
2023-01-29T07:56:46.610Z,195.86
2023-01-29T07:59:53.339Z,208.83
2023-01-29T08:03:07.026Z,197.33
2023-01-29T08:06:13.861Z,160.05
2023-01-29T08:09:22.339Z,127.12
2023-01-29T08:12:29.064Z,119.09
2023-01-29T08:15:39.215Z,99.31
2023-01-29T08:18:47.967Z,100.89
2023-01-29T08:21:53.709Z,95.39
2023-01-29T08:25:08.318Z,124.94
2023-01-29T08:28:14.944Z,94.16
2023-01-29T08:31:23.422Z,87.80
2023-01-29T08:34:29.272Z,84.49
2023-01-29T08:37:36.207Z,107.29
2023-01-29T08:40:47.415Z,99.93
2023-01-29T08:43:53.953Z,98.80
2023-01-29T08:46:59.785Z,112.11
2023-01-29T08:50:06.542Z,99.07
2023-01-29T08:53:13.146Z,96.43
2023-01-29T08:56:22.340Z,96.17
2023-01-29T08:59:28.283Z,111.73
2023-01-29T09:02:35.039Z,110.25
2023-01-29T09:05:43.310Z,108.91
2023-01-29T09:08:51.332Z,109.26
2023-01-29T09:11:59.923Z,131.01
2023-01-29T09:15:10.661Z,215.64
2023-01-29T09:18:25.058Z,156.52
2023-01-29T09:21:34.801Z,150.09
2023-01-29T09:24:40.626Z,147.29
2023-01-29T09:27:49.751Z,138.92
2023-01-29T09:30:55.741Z,143.79
2023-01-29T09:34:02.351Z,128.95
2023-01-29T09:37:08.323Z,131.86
2023-01-29T09:40:29.420Z,123.51
2023-01-29T09:43:52.203Z,137.37
2023-01-29T09:47:05.281Z,139.68
2023-01-29T09:50:21.359Z,174.57
2023-01-29T09:53:42.494Z,135.65
2023-01-29T09:56:51.374Z,196.80
2023-01-29T10:00:03.042Z,145.19
2023-01-29T10:03:38.990Z,131.85
2023-01-29T10:07:10.529Z,94.92
2023-01-29T10:10:46.494Z,117.73
2023-01-29T10:14:14.702Z,100.16
2023-01-29T10:17:53.319Z,91.19
2023-01-29T10:21:27.790Z,102.82
2023-01-29T10:24:44.724Z,111.22
2023-01-29T10:27:58.172Z,107.11
2023-01-29T10:31:18.812Z,139.12
2023-01-29T10:34:46.092Z,114.57
2023-01-29T10:37:56.885Z,115.84
2023-01-29T10:41:52.536Z,124.66
2023-01-29T10:45:29.141Z,118.49
2023-01-29T10:48:58.297Z,126.15
2023-01-29T10:52:29.269Z,178.94
2023-01-29T10:55:54.141Z,181.56
2023-01-29T10:59:08.105Z,160.26
2023-01-29T11:02:21.480Z,168.89
2023-01-29T11:05:37.550Z,172.42
2023-01-29T11:08:59.049Z,204.91
2023-01-29T11:12:13.633Z,191.13
2023-01-29T11:15:29.132Z,187.34
2023-01-29T11:18:57.733Z,205.33
2023-01-29T11:22:05.089Z,203.99
2023-01-29T11:25:21.764Z,196.36
2023-01-29T11:28:44.275Z,194.65
2023-01-29T11:31:51.256Z,179.39
2023-01-29T11:35:04.465Z,168.05
2023-01-29T11:38:22.527Z,159.57
2023-01-29T11:41:31.744Z,137.40
2023-01-29T11:44:44.991Z,129.35
2023-01-29T11:47:55.745Z,127.70
2023-01-29T11:51:06.481Z,121.18
2023-01-29T11:54:22.724Z,130.14
2023-01-29T11:57:38.887Z,123.93
2023-01-29T12:00:55.504Z,314.32
2023-01-29T12:04:02.877Z,720.58
2023-01-29T12:07:18.948Z,384.80
2023-01-29T12:10:37.320Z,330.47
2023-01-29T12:13:47.267Z,120.24
2023-01-29T12:17:04.413Z,125.34
2023-01-29T12:20:21.403Z,158.94
2023-01-29T12:23:41.848Z,149.59
2023-01-29T12:26:58.186Z,165.55
2023-01-29T12:30:22.577Z,138.87
2023-01-29T12:33:42.411Z,144.86
2023-01-29T12:36:59.639Z,138.98
2023-01-29T12:40:13.891Z,290.58
2023-01-29T12:43:25.453Z,147.40
2023-01-29T12:46:46.655Z,126.31
2023-01-29T12:50:04.829Z,135.01
2023-01-29T12:53:29.785Z,119.83
2023-01-29T12:56:42.493Z,112.21
2023-01-29T12:59:58.244Z,128.28
2023-01-29T13:03:24.081Z,112.61
2023-01-29T13:06:42.594Z,112.11
2023-01-29T13:10:00.439Z,127.36
2023-01-29T13:13:19.463Z,115.28
2023-01-29T13:16:34.626Z,125.96
2023-01-29T13:19:53.317Z,105.41
2023-01-29T13:23:13.307Z,181.09
2023-01-29T13:26:22.897Z,142.88
2023-01-29T13:29:33.292Z,100.48
2023-01-29T13:32:40.403Z,118.17
2023-01-29T13:35:50.135Z,103.30
2023-01-29T13:39:09.191Z,116.03
2023-01-29T13:42:24.146Z,121.55
2023-01-29T13:45:45.188Z,141.48
2023-01-29T13:48:58.362Z,116.90
2023-01-29T13:52:30.974Z,125.25
2023-01-29T13:55:40.690Z,121.22
2023-01-29T13:58:59.167Z,131.83
2023-01-29T14:02:22.135Z,114.17
2023-01-29T14:05:45.189Z,115.19
2023-01-29T14:08:53.635Z,161.06
2023-01-29T14:12:00.330Z,140.21
2023-01-29T14:15:30.862Z,144.63
2023-01-29T14:18:48.067Z,138.19
2023-01-29T14:21:54.437Z,140.67
2023-01-29T14:25:08.954Z,142.77
2023-01-29T14:28:33.889Z,165.37
2023-01-29T14:31:46.871Z,168.41
2023-01-29T14:35:02.773Z,146.74
2023-01-29T14:38:17.151Z,139.83
2023-01-29T14:41:34.392Z,144.37
2023-01-29T14:45:13.102Z,185.84
2023-01-29T14:48:41.754Z,149.33
2023-01-29T14:51:50.076Z,129.30
2023-01-29T14:55:04.548Z,139.03
2023-01-29T14:58:22.155Z,133.27
2023-01-29T15:01:37.221Z,138.41
2023-01-29T15:04:52.993Z,148.57
2023-01-29T15:08:09.468Z,186.57
2023-01-29T15:11:36.590Z,180.27
2023-01-29T15:14:58.748Z,164.47
2023-01-29T15:18:17.737Z,163.23
2023-01-29T15:21:23.941Z,168.82
2023-01-29T15:24:31.074Z,178.16
2023-01-29T15:27:38.321Z,182.30
2023-01-29T15:30:49.274Z,173.29
2023-01-29T15:34:00.443Z,163.74
2023-01-29T15:37:06.974Z,165.62
2023-01-29T15:40:22.092Z,184.13
2023-01-29T15:43:32.277Z,202.72
2023-01-29T15:46:45.594Z,215.40
2023-01-29T15:49:52.797Z,229.90
2023-01-29T15:53:15.239Z,235.44
2023-01-29T15:56:29.031Z,226.02
2023-01-29T15:59:51.858Z,226.19
2023-01-29T16:03:03.151Z,206.73
2023-01-29T16:06:12.285Z,193.93
2023-01-29T16:09:26.339Z,202.40
2023-01-29T16:12:32.371Z,198.68
2023-01-29T16:15:57.230Z,211.37
2023-01-29T16:19:17.329Z,205.00
2023-01-29T16:22:25.483Z,229.36
2023-01-29T16:25:34.180Z,204.78
2023-01-29T16:28:44.782Z,191.12
2023-01-29T16:32:00.666Z,180.35
2023-01-29T16:35:18.594Z,201.37
2023-01-29T16:38:35.311Z,239.44
2023-01-29T16:41:43.570Z,252.81
2023-01-29T16:44:54.467Z,253.59
2023-01-29T16:48:22.033Z,256.08
2023-01-29T16:51:34.668Z,284.26
2023-01-29T16:54:46.271Z,271.48
2023-01-29T16:57:57.755Z,253.55
2023-01-29T17:01:11.342Z,297.16
2023-01-29T17:04:21.770Z,330.01
2023-01-29T17:07:32.627Z,252.14
2023-01-29T17:10:38.911Z,251.25
2023-01-29T17:13:49.028Z,232.05
2023-01-29T17:16:59.601Z,238.05
2023-01-29T17:20:18.556Z,234.48
2023-01-29T17:23:26.951Z,217.54
2023-01-29T17:26:35.209Z,217.21
2023-01-29T17:29:41.781Z,214.95
2023-01-29T17:32:48.566Z,216.09
2023-01-29T17:35:57.080Z,200.31
2023-01-29T17:39:17.967Z,210.57
2023-01-29T17:42:23.637Z,212.84
2023-01-29T17:45:30.586Z,229.69
2023-01-29T17:48:36.394Z,233.50
2023-01-29T17:51:44.966Z,251.67
2023-01-29T17:54:53.328Z,252.33
2023-01-29T17:58:00.256Z,255.59
2023-01-29T18:01:06.123Z,251.62
2023-01-29T18:04:12.973Z,250.04
2023-01-29T18:07:18.930Z,244.39
2023-01-29T18:10:28.614Z,246.26
2023-01-29T18:13:36.308Z,257.50
2023-01-29T18:16:43.172Z,257.39
2023-01-29T18:19:51.207Z,251.49
2023-01-29T18:22:58.030Z,241.61
2023-01-29T18:26:07.945Z,237.81
2023-01-29T18:29:14.733Z,239.79
2023-01-29T18:32:20.534Z,244.86
2023-01-29T18:35:30.574Z,235.83
2023-01-29T18:38:36.600Z,247.65
2023-01-29T18:41:45.909Z,254.53
2023-01-29T18:44:52.030Z,267.50
2023-01-29T18:47:58.930Z,266.86
2023-01-29T18:51:05.057Z,258.96
2023-01-29T18:54:15.667Z,254.81
2023-01-29T18:58:29.356Z,267.47
2023-01-29T19:00:51.061Z,273.43
2023-01-29T19:03:59.365Z,276.68
2023-01-29T19:07:07.709Z,269.49
2023-01-29T19:10:17.274Z,273.18
2023-01-29T19:13:27.074Z,275.57
2023-01-29T19:16:33.086Z,298.43
2023-01-29T19:19:39.667Z,360.19
2023-01-29T19:22:45.631Z,341.02
2023-01-29T19:25:52.451Z,336.52
2023-01-29T19:29:01.178Z,325.10
2023-01-29T19:32:09.070Z,309.88
2023-01-29T19:35:15.134Z,285.98
2023-01-29T19:38:21.933Z,268.98
2023-01-29T19:41:28.007Z,263.40
2023-01-29T19:44:39.096Z,263.17
2023-01-29T19:47:46.778Z,265.83
2023-01-29T19:50:58.249Z,276.67
2023-01-29T19:54:04.336Z,279.41
2023-01-29T19:57:11.335Z,305.86
2023-01-29T20:00:24.035Z,308.26
2023-01-29T20:03:32.164Z,286.14
2023-01-29T20:06:38.242Z,289.61
2023-01-29T20:09:45.008Z,286.64
2023-01-29T20:12:51.004Z,284.85
2023-01-29T20:16:03.131Z,287.89
2023-01-29T20:19:14.269Z,297.70
2023-01-29T20:22:21.648Z,307.12
2023-01-29T20:25:27.616Z,301.20
2023-01-29T20:28:38.139Z,306.65
2023-01-29T20:31:53.899Z,305.14
2023-01-29T20:35:00.614Z,307.59
2023-01-29T20:38:08.372Z,325.27
2023-01-29T20:41:19.427Z,308.02
2023-01-29T20:44:25.389Z,284.27
2023-01-29T20:47:36.645Z,274.98
2023-01-29T20:50:44.266Z,270.93
2023-01-29T20:53:51.932Z,278.85
2023-01-29T20:56:58.119Z,283.30
2023-01-29T21:00:05.346Z,282.83
2023-01-29T21:03:14.160Z,314.45
2023-01-29T21:06:22.740Z,291.89
2023-01-29T21:09:28.615Z,286.09
2023-01-29T21:12:38.198Z,285.28
2023-01-29T21:15:46.995Z,286.91
2023-01-29T21:18:59.699Z,280.85
2023-01-29T21:22:07.118Z,288.70
2023-01-29T21:25:15.032Z,276.45
2023-01-29T21:28:22.177Z,276.56
2023-01-29T21:31:28.868Z,277.54
2023-01-29T21:34:37.599Z,285.66
2023-01-29T21:37:45.167Z,277.30
2023-01-29T21:40:51.263Z,282.28
2023-01-29T21:43:58.161Z,276.22
2023-01-29T21:47:12.564Z,295.59
2023-01-29T21:50:23.541Z,293.94
2023-01-29T21:53:29.757Z,274.50
2023-01-29T21:56:36.587Z,252.91
2023-01-29T21:59:42.510Z,240.15
2023-01-29T22:02:51.415Z,236.67
2023-01-29T22:06:00.011Z,233.90
2023-01-29T22:09:09.644Z,228.92
2023-01-29T22:12:15.617Z,233.21
2023-01-29T22:15:23.876Z,252.68
2023-01-29T22:18:30.570Z,250.39
2023-01-29T22:21:40.065Z,234.44
2023-01-29T22:24:46.804Z,219.02
2023-01-29T22:27:53.509Z,215.76
2023-01-29T22:31:04.827Z,213.15
2023-01-29T22:34:12.897Z,210.06
2023-01-29T22:37:21.406Z,207.62
2023-01-29T22:40:28.127Z,207.05
2023-01-29T22:43:34.171Z,201.27
2023-01-29T22:46:40.873Z,202.44
2023-01-29T22:49:50.193Z,196.42
2023-01-29T22:52:59.551Z,198.51
2023-01-29T22:56:05.526Z,196.25
2023-01-29T22:59:13.902Z,196.12
2023-01-29T23:02:19.696Z,197.58
2023-01-29T23:05:26.454Z,204.25
2023-01-29T23:08:36.254Z,202.75
2023-01-29T23:11:42.809Z,203.06
2023-01-29T23:14:48.711Z,204.90
2023-01-29T23:17:55.322Z,202.04
2023-01-29T23:21:01.274Z,208.10
2023-01-29T23:24:13.209Z,202.34
2023-01-29T23:27:19.183Z,206.77
2023-01-29T23:30:25.802Z,209.03
2023-01-29T23:33:31.909Z,205.32
2023-01-29T23:36:38.485Z,205.00
2023-01-29T23:39:46.909Z,206.02
2023-01-29T23:42:56.173Z,203.69
2023-01-29T23:46:02.514Z,194.54
2023-01-29T23:49:09.314Z,189.32
2023-01-29T23:52:15.186Z,184.54
2023-01-29T23:55:24.581Z,181.76
2023-01-29T23:58:31.903Z,183.70
